createdAt,value
2023-05-25T00:01:01.988Z,1093.00
2023-05-25T00:01:54.132Z,1091.00
2023-05-25T00:02:53.330Z,1088.00
2023-05-25T00:03:53.256Z,1088.00
2023-05-25T00:04:53.106Z,1086.00
2023-05-25T00:05:53.075Z,1085.00
2023-05-25T00:06:53.075Z,1084.00
2023-05-25T00:07:53.085Z,1083.00
2023-05-25T00:08:53.076Z,1081.00
2023-05-25T00:09:53.086Z,1078.00
2023-05-25T00:10:53.066Z,1078.00
2023-05-25T00:11:53.064Z,1080.00
2023-05-25T00:12:53.087Z,1075.00
2023-05-25T00:13:53.032Z,1074.00
2023-05-25T00:14:53.050Z,1074.00
2023-05-25T00:15:53.016Z,1072.00
2023-05-25T00:16:53.111Z,1069.00
2023-05-25T00:17:53.047Z,1066.00
2023-05-25T00:18:53.017Z,1068.00
2023-05-25T00:19:53.061Z,1071.00
2023-05-25T00:20:52.988Z,1064.00
2023-05-25T00:21:52.993Z,1062.00
2023-05-25T00:22:52.999Z,1064.00
2023-05-25T00:23:52.995Z,1061.00
2023-05-25T00:24:52.977Z,1064.00
2023-05-25T00:25:52.943Z,1063.00
2023-05-25T00:26:52.967Z,1061.00
2023-05-25T00:27:52.962Z,1060.00
2023-05-25T00:28:52.963Z,1056.00
2023-05-25T00:29:52.937Z,1056.00
2023-05-25T00:30:52.965Z,1052.00
2023-05-25T00:31:52.960Z,1052.00
2023-05-25T00:32:52.962Z,1051.00
2023-05-25T00:33:52.914Z,1048.00
2023-05-25T00:34:52.915Z,1046.00
2023-05-25T00:35:52.883Z,1045.00
2023-05-25T00:36:52.901Z,1043.00
2023-05-25T00:37:52.899Z,1043.00
2023-05-25T00:38:52.871Z,1043.00
2023-05-25T00:39:52.925Z,1043.00
2023-05-25T00:40:52.851Z,1043.00
2023-05-25T00:41:52.898Z,1044.00
2023-05-25T00:42:52.890Z,1038.00
2023-05-25T00:43:53.360Z,1037.00
2023-05-25T00:44:52.867Z,1037.00
2023-05-25T00:45:52.905Z,1037.00
2023-05-25T00:46:53.139Z,1038.00
2023-05-25T00:47:52.956Z,1037.00
2023-05-25T00:48:52.890Z,1035.00
2023-05-25T00:49:52.937Z,1034.00
2023-05-25T00:50:52.890Z,1034.00
2023-05-25T00:51:52.954Z,1032.00
2023-05-25T00:52:52.918Z,1033.00
2023-05-25T00:53:52.914Z,1031.00
2023-05-25T00:54:52.919Z,1032.00
2023-05-25T00:55:52.933Z,1030.00
2023-05-25T00:56:52.927Z,1029.00
2023-05-25T00:57:52.936Z,1028.00
2023-05-25T00:58:52.964Z,1028.00
2023-05-25T00:59:52.989Z,1030.00
2023-05-25T01:00:52.972Z,1028.00
2023-05-25T01:01:52.974Z,1025.00
2023-05-25T01:02:53.248Z,1021.00
2023-05-25T01:03:53.076Z,1021.00
2023-05-25T01:04:53.060Z,1020.00
2023-05-25T01:05:53.072Z,1022.00
2023-05-25T01:06:53.125Z,1021.00
2023-05-25T01:07:53.123Z,1021.00
2023-05-25T01:08:53.183Z,1018.00
2023-05-25T01:09:53.133Z,1016.00
2023-05-25T01:10:53.140Z,1014.00
2023-05-25T01:11:53.145Z,1014.00
2023-05-25T01:12:53.116Z,1013.00
2023-05-25T01:13:53.120Z,1009.00
2023-05-25T01:14:53.165Z,1009.00
2023-05-25T01:15:53.117Z,1007.00
2023-05-25T01:16:53.160Z,1004.00
2023-05-25T01:17:53.178Z,1000.00
2023-05-25T01:18:53.146Z,998.00
2023-05-25T01:20:09.068Z,1000.00
2023-05-25T01:20:54.246Z,996.00
2023-05-25T01:21:53.146Z,998.00
2023-05-25T01:22:53.156Z,996.00
2023-05-25T01:23:53.356Z,991.00
2023-05-25T01:24:53.138Z,991.00
2023-05-25T01:25:53.096Z,992.00
2023-05-25T01:26:53.118Z,990.00
2023-05-25T01:27:53.072Z,989.00
2023-05-25T01:28:53.102Z,985.00
2023-05-25T01:29:53.071Z,981.00
2023-05-25T01:30:53.071Z,980.00
2023-05-25T01:31:53.110Z,977.00
2023-05-25T01:32:53.089Z,979.00
2023-05-25T01:33:53.080Z,979.00
2023-05-25T01:34:53.051Z,980.00
2023-05-25T01:35:53.037Z,983.00
2023-05-25T01:36:53.028Z,982.00
2023-05-25T01:37:53.017Z,983.00
2023-05-25T01:38:53.024Z,983.00
2023-05-25T01:39:53.021Z,982.00
2023-05-25T01:40:52.999Z,984.00
2023-05-25T01:41:52.988Z,983.00
2023-05-25T01:42:52.985Z,979.00
2023-05-25T01:43:53.001Z,975.00
2023-05-25T01:44:52.991Z,972.00
2023-05-25T01:45:53.032Z,972.00
2023-05-25T01:46:52.974Z,974.00
2023-05-25T01:47:52.997Z,971.00
2023-05-25T01:48:52.986Z,970.00
2023-05-25T01:49:53.000Z,969.00
2023-05-25T01:50:53.010Z,966.00
2023-05-25T01:51:53.112Z,966.00
2023-05-25T01:52:53.042Z,966.00
2023-05-25T01:53:53.061Z,967.00
2023-05-25T01:54:53.096Z,969.00
2023-05-25T01:55:53.037Z,971.00
2023-05-25T01:56:53.081Z,972.00
2023-05-25T01:57:53.084Z,970.00
2023-05-25T01:58:53.084Z,969.00
2023-05-25T01:59:53.111Z,968.00
2023-05-25T02:00:53.104Z,965.00
2023-05-25T02:01:53.696Z,962.00
2023-05-25T02:02:53.210Z,958.00
2023-05-25T02:03:53.173Z,953.00
2023-05-25T02:04:53.156Z,956.00
2023-05-25T02:05:53.140Z,956.00
2023-05-25T02:06:53.156Z,954.00
2023-05-25T02:07:53.177Z,951.00
2023-05-25T02:08:53.173Z,953.00
2023-05-25T02:09:53.215Z,950.00
2023-05-25T02:10:53.219Z,949.00
2023-05-25T02:11:53.222Z,950.00
2023-05-25T02:12:53.230Z,951.00
2023-05-25T02:13:53.265Z,949.00
2023-05-25T02:14:53.223Z,948.00
2023-05-25T02:15:53.297Z,947.00
2023-05-25T02:16:53.262Z,945.00
2023-05-25T02:17:53.337Z,944.00
2023-05-25T02:18:53.366Z,942.00
2023-05-25T02:19:53.412Z,939.00
2023-05-25T02:20:53.334Z,938.00
2023-05-25T02:21:53.320Z,938.00
2023-05-25T02:22:53.374Z,939.00
2023-05-25T02:23:53.371Z,937.00
2023-05-25T02:24:53.386Z,935.00
2023-05-25T02:25:53.398Z,932.00
2023-05-25T02:26:53.416Z,928.00
2023-05-25T02:27:53.397Z,929.00
2023-05-25T02:28:53.402Z,931.00
2023-05-25T02:29:53.424Z,932.00
2023-05-25T02:30:53.435Z,932.00
2023-05-25T02:31:53.492Z,931.00
2023-05-25T02:32:53.484Z,931.00
2023-05-25T02:33:53.476Z,931.00
2023-05-25T02:34:53.545Z,930.00
2023-05-25T02:35:53.505Z,928.00
2023-05-25T02:36:53.541Z,926.00
2023-05-25T02:37:53.512Z,926.00
2023-05-25T02:38:53.904Z,923.00
2023-05-25T02:39:53.531Z,927.00
2023-05-25T02:40:53.528Z,926.00
2023-05-25T02:41:54.400Z,926.00
2023-05-25T02:42:53.578Z,924.00
2023-05-25T02:43:53.615Z,921.00
2023-05-25T02:44:53.622Z,921.00
2023-05-25T02:45:53.649Z,918.00
2023-05-25T02:46:53.677Z,915.00
2023-05-25T02:47:53.705Z,913.00
2023-05-25T02:48:53.658Z,912.00
2023-05-25T02:49:53.684Z,910.00
2023-05-25T02:50:53.668Z,909.00
2023-05-25T02:51:53.711Z,907.00
2023-05-25T02:52:53.737Z,903.00
2023-05-25T02:53:53.718Z,905.00
2023-05-25T02:54:53.744Z,903.00
2023-05-25T02:55:53.773Z,902.00
2023-05-25T02:56:53.809Z,900.00
2023-05-25T02:57:53.816Z,901.00
2023-05-25T02:58:53.796Z,905.00
2023-05-25T02:59:53.853Z,903.00
2023-05-25T03:00:53.857Z,902.00
2023-05-25T03:01:53.852Z,901.00
2023-05-25T03:02:53.943Z,901.00
2023-05-25T03:03:53.930Z,902.00
2023-05-25T03:04:54.096Z,902.00
2023-05-25T03:05:53.930Z,901.00
2023-05-25T03:06:53.990Z,901.00
2023-05-25T03:07:54.012Z,902.00
2023-05-25T03:08:54.006Z,897.00
2023-05-25T03:09:54.001Z,895.00
2023-05-25T03:10:54.047Z,892.00
2023-05-25T03:11:54.093Z,891.00
2023-05-25T03:12:54.101Z,889.00
2023-05-25T03:13:54.081Z,889.00
2023-05-25T03:14:54.138Z,888.00
2023-05-25T03:15:54.134Z,889.00
2023-05-25T03:16:54.474Z,889.00
2023-05-25T03:17:54.168Z,889.00
2023-05-25T03:18:54.176Z,890.00
2023-05-25T03:19:54.199Z,889.00
2023-05-25T03:20:54.209Z,891.00
2023-05-25T03:21:54.263Z,888.00
2023-05-25T03:22:54.241Z,887.00
2023-05-25T03:23:54.274Z,886.00
2023-05-25T03:24:54.260Z,887.00
2023-05-25T03:25:54.295Z,884.00
2023-05-25T03:26:54.306Z,882.00
2023-05-25T03:27:54.348Z,882.00
2023-05-25T03:28:54.357Z,884.00
2023-05-25T03:29:54.358Z,881.00
2023-05-25T03:30:54.374Z,884.00
2023-05-25T03:31:54.403Z,885.00
2023-05-25T03:32:54.432Z,886.00
2023-05-25T03:33:54.448Z,885.00
2023-05-25T03:34:54.449Z,884.00
2023-05-25T03:35:54.462Z,882.00
2023-05-25T03:36:54.472Z,883.00
2023-05-25T03:37:54.472Z,882.00
2023-05-25T03:38:54.663Z,882.00
2023-05-25T03:39:54.526Z,882.00
2023-05-25T03:40:54.545Z,883.00
2023-05-25T03:41:54.568Z,882.00
2023-05-25T03:42:54.612Z,879.00
2023-05-25T03:43:54.625Z,880.00
2023-05-25T03:44:54.631Z,877.00
2023-05-25T03:45:54.668Z,877.00
2023-05-25T03:46:54.643Z,876.00
2023-05-25T03:47:54.728Z,878.00
2023-05-25T03:48:54.719Z,877.00
2023-05-25T03:49:54.727Z,877.00
2023-05-25T03:50:54.755Z,878.00
2023-05-25T03:51:54.745Z,877.00
2023-05-25T03:52:54.766Z,877.00
2023-05-25T03:53:54.781Z,877.00
2023-05-25T03:54:54.801Z,874.00
2023-05-25T03:55:54.832Z,871.00
2023-05-25T03:56:54.836Z,872.00
2023-05-25T03:57:54.857Z,869.00
2023-05-25T03:58:54.850Z,869.00
2023-05-25T03:59:54.863Z,867.00
2023-05-25T04:00:54.897Z,864.00
2023-05-25T04:01:54.913Z,862.00
2023-05-25T04:02:55.027Z,860.00
2023-05-25T04:03:55.039Z,858.00
2023-05-25T04:04:54.987Z,858.00
2023-05-25T04:05:54.980Z,861.00
2023-05-25T04:06:55.017Z,859.00
2023-05-25T04:07:55.027Z,856.00
2023-05-25T04:08:55.045Z,852.00
2023-05-25T04:09:55.049Z,851.00
2023-05-25T04:10:55.092Z,852.00
2023-05-25T04:11:55.105Z,853.00
2023-05-25T04:12:55.104Z,856.00
2023-05-25T04:13:55.152Z,858.00
2023-05-25T04:14:55.156Z,856.00
2023-05-25T04:15:55.179Z,857.00
2023-05-25T04:16:55.170Z,855.00
2023-05-25T04:17:55.255Z,853.00
2023-05-25T04:18:55.212Z,853.00
2023-05-25T04:19:55.226Z,853.00
2023-05-25T04:20:55.225Z,853.00
2023-05-25T04:21:55.260Z,850.00
2023-05-25T04:22:55.267Z,848.00
2023-05-25T04:23:55.266Z,848.00
2023-05-25T04:24:55.329Z,849.00
2023-05-25T04:25:55.295Z,848.00
2023-05-25T04:26:55.307Z,850.00
2023-05-25T04:27:55.342Z,853.00
2023-05-25T04:28:55.439Z,852.00
2023-05-25T04:29:55.370Z,851.00
2023-05-25T04:30:55.406Z,849.00
2023-05-25T04:31:55.477Z,847.00
2023-05-25T04:32:55.503Z,844.00
2023-05-25T04:33:55.466Z,840.00
2023-05-25T04:34:55.521Z,839.00
2023-05-25T04:35:55.464Z,838.00
2023-05-25T04:36:55.489Z,838.00
2023-05-25T04:37:55.478Z,837.00
2023-05-25T04:38:55.544Z,836.00
2023-05-25T04:39:55.536Z,835.00
2023-05-25T04:40:55.587Z,835.00
2023-05-25T04:41:55.541Z,835.00
2023-05-25T04:42:55.595Z,836.00
2023-05-25T04:44:08.026Z,836.00
2023-05-25T04:44:56.628Z,837.00
2023-05-25T04:45:55.578Z,836.00
2023-05-25T04:46:55.661Z,832.00
2023-05-25T04:47:55.565Z,832.00
2023-05-25T04:48:55.574Z,834.00
2023-05-25T04:49:55.521Z,832.00
2023-05-25T04:50:55.551Z,831.00
2023-05-25T04:51:55.550Z,832.00
2023-05-25T04:52:55.513Z,829.00
2023-05-25T04:53:55.527Z,827.00
2023-05-25T04:54:55.484Z,826.00
2023-05-25T04:55:55.499Z,826.00
2023-05-25T04:56:55.459Z,827.00
2023-05-25T04:57:55.485Z,825.00
2023-05-25T04:58:55.493Z,825.00
2023-05-25T04:59:55.433Z,824.00
2023-05-25T05:00:55.493Z,823.00
2023-05-25T05:01:55.498Z,824.00
2023-05-25T05:02:55.548Z,821.00
2023-05-25T05:03:55.501Z,823.00
2023-05-25T05:04:55.449Z,822.00
2023-05-25T05:05:55.431Z,819.00
2023-05-25T05:06:57.349Z,816.00
2023-05-25T05:07:55.397Z,816.00
2023-05-25T05:08:55.418Z,816.00
2023-05-25T05:09:55.423Z,817.00
2023-05-25T05:10:55.376Z,817.00
2023-05-25T05:11:55.379Z,818.00
2023-05-25T05:12:55.370Z,816.00
2023-05-25T05:13:55.375Z,813.00
2023-05-25T05:14:55.361Z,812.00
2023-05-25T05:15:55.351Z,814.00
2023-05-25T05:16:55.453Z,814.00
2023-05-25T05:17:55.463Z,812.00
2023-05-25T05:18:55.333Z,808.00
2023-05-25T05:19:55.340Z,806.00
2023-05-25T05:20:55.326Z,806.00
2023-05-25T05:21:55.297Z,805.00
2023-05-25T05:22:55.313Z,807.00
2023-05-25T05:23:55.282Z,806.00
2023-05-25T05:24:55.316Z,805.00
2023-05-25T05:25:55.287Z,803.00
2023-05-25T05:26:58.234Z,802.00
2023-05-25T05:27:55.261Z,801.00
2023-05-25T05:28:55.236Z,798.00
2023-05-25T05:29:55.236Z,797.00
2023-05-25T05:30:55.278Z,794.00
2023-05-25T05:31:55.319Z,792.00
2023-05-25T05:32:55.286Z,795.00
2023-05-25T05:33:55.268Z,797.00
2023-05-25T05:34:55.223Z,798.00
2023-05-25T05:35:55.221Z,797.00
2023-05-25T05:36:58.036Z,796.00
2023-05-25T05:37:55.191Z,793.00
2023-05-25T05:38:55.226Z,792.00
2023-05-25T05:39:55.174Z,790.00
2023-05-25T05:40:55.184Z,791.00
2023-05-25T05:41:55.149Z,789.00
2023-05-25T05:42:55.140Z,787.00
2023-05-25T05:43:55.465Z,786.00
2023-05-25T05:44:55.962Z,786.00
2023-05-25T05:45:55.162Z,786.00
2023-05-25T05:46:55.187Z,786.00
2023-05-25T05:47:55.143Z,783.00
2023-05-25T05:48:55.476Z,782.00
2023-05-25T05:49:55.100Z,780.00
2023-05-25T05:50:55.066Z,779.00
2023-05-25T05:51:55.124Z,779.00
2023-05-25T05:52:55.105Z,781.00
2023-05-25T05:53:55.067Z,781.00
2023-05-25T05:54:55.060Z,780.00
2023-05-25T05:55:56.268Z,778.00
2023-05-25T05:56:55.046Z,778.00
2023-05-25T05:57:55.055Z,778.00
2023-05-25T05:58:55.489Z,780.00
2023-05-25T05:59:55.028Z,779.00
2023-05-25T06:00:55.046Z,780.00
2023-05-25T06:01:55.067Z,782.00
2023-05-25T06:02:55.191Z,780.00
2023-05-25T06:03:55.027Z,779.00
2023-05-25T06:04:54.998Z,776.00
2023-05-25T06:05:54.982Z,776.00
2023-05-25T06:06:54.968Z,775.00
2023-05-25T06:07:55.014Z,775.00
2023-05-25T06:08:54.971Z,771.00
2023-05-25T06:09:54.985Z,772.00
2023-05-25T06:10:54.954Z,773.00
2023-05-25T06:11:54.961Z,770.00
2023-05-25T06:12:54.921Z,770.00
2023-05-25T06:13:54.955Z,768.00
2023-05-25T06:14:54.946Z,763.00
2023-05-25T06:15:54.952Z,766.00
2023-05-25T06:16:54.960Z,767.00
2023-05-25T06:17:54.928Z,764.00
2023-05-25T06:18:54.908Z,760.00
2023-05-25T06:19:54.924Z,756.00
2023-05-25T06:20:54.880Z,754.00
2023-05-25T06:21:54.895Z,756.00
2023-05-25T06:22:54.852Z,757.00
2023-05-25T06:23:54.851Z,758.00
2023-05-25T06:24:54.869Z,759.00
2023-05-25T06:25:54.859Z,760.00
2023-05-25T06:26:54.849Z,758.00
2023-05-25T06:27:54.864Z,756.00
2023-05-25T06:28:54.865Z,754.00
2023-05-25T06:29:54.817Z,751.00
2023-05-25T06:30:54.828Z,749.00
2023-05-25T06:31:54.899Z,749.00
2023-05-25T06:32:54.848Z,748.00
2023-05-25T06:33:54.800Z,745.00
2023-05-25T06:34:55.533Z,742.00
2023-05-25T06:35:56.336Z,742.00
2023-05-25T06:36:54.815Z,742.00
2023-05-25T06:37:54.786Z,743.00
2023-05-25T06:38:55.004Z,744.00
2023-05-25T06:39:56.886Z,746.00
2023-05-25T06:40:54.787Z,746.00
2023-05-25T06:41:54.757Z,747.00
2023-05-25T06:42:54.755Z,747.00
2023-05-25T06:43:54.795Z,747.00
2023-05-25T06:44:54.725Z,747.00
2023-05-25T06:45:54.757Z,748.00
2023-05-25T06:46:54.725Z,748.00
2023-05-25T06:47:54.776Z,746.00
2023-05-25T06:48:55.017Z,745.00
2023-05-25T06:49:54.702Z,743.00
2023-05-25T06:50:54.694Z,744.00
2023-05-25T06:51:54.698Z,744.00
2023-05-25T06:52:54.680Z,741.00
2023-05-25T06:53:54.693Z,766.00
2023-05-25T06:54:54.654Z,750.00
2023-05-25T06:55:54.663Z,746.00
2023-05-25T06:56:54.657Z,747.00
2023-05-25T06:57:54.651Z,747.00
2023-05-25T06:58:54.676Z,748.00
2023-05-25T06:59:54.651Z,747.00
2023-05-25T07:00:54.691Z,744.00
2023-05-25T07:01:54.679Z,744.00
2023-05-25T07:02:54.737Z,744.00
2023-05-25T07:03:54.619Z,745.00
2023-05-25T07:04:54.678Z,743.00
2023-05-25T07:05:54.611Z,743.00
2023-05-25T07:06:54.592Z,743.00
2023-05-25T07:07:54.608Z,742.00
2023-05-25T07:08:54.573Z,743.00
2023-05-25T07:09:54.574Z,744.00
2023-05-25T07:10:54.609Z,744.00
2023-05-25T07:11:54.566Z,743.00
2023-05-25T07:12:54.542Z,742.00
2023-05-25T07:13:54.573Z,742.00
2023-05-25T07:14:54.548Z,739.00
2023-05-25T07:15:54.615Z,737.00
2023-05-25T07:16:54.533Z,735.00
2023-05-25T07:17:54.569Z,734.00
2023-05-25T07:18:54.549Z,734.00
2023-05-25T07:19:54.546Z,736.00
2023-05-25T07:20:54.530Z,733.00
2023-05-25T07:21:54.511Z,733.00
2023-05-25T07:22:54.536Z,733.00
2023-05-25T07:23:54.516Z,733.00
2023-05-25T07:24:54.493Z,733.00
2023-05-25T07:25:54.498Z,733.00
2023-05-25T07:26:54.472Z,736.00
2023-05-25T07:27:54.488Z,735.00
2023-05-25T07:28:54.462Z,736.00
2023-05-25T07:29:54.462Z,736.00
2023-05-25T07:30:54.459Z,736.00
2023-05-25T07:31:54.535Z,735.00
2023-05-25T07:32:54.500Z,734.00
2023-05-25T07:33:54.423Z,731.00
2023-05-25T07:34:54.472Z,735.00
2023-05-25T07:35:54.433Z,736.00
2023-05-25T07:36:54.403Z,735.00
2023-05-25T07:37:54.390Z,737.00
2023-05-25T07:38:54.525Z,736.00
2023-05-25T07:39:54.392Z,738.00
2023-05-25T07:40:54.399Z,741.00
2023-05-25T07:41:54.389Z,744.00
2023-05-25T07:42:54.384Z,745.00
2023-05-25T07:43:54.400Z,747.00
2023-05-25T07:44:54.355Z,747.00
2023-05-25T07:45:54.360Z,746.00
2023-05-25T07:46:54.511Z,743.00
2023-05-25T07:47:54.383Z,743.00
2023-05-25T07:48:54.680Z,738.00
2023-05-25T07:49:54.327Z,737.00
2023-05-25T07:50:54.323Z,735.00
2023-05-25T07:51:54.336Z,736.00
2023-05-25T07:52:54.318Z,734.00
2023-05-25T07:53:54.321Z,735.00
2023-05-25T07:54:54.348Z,734.00
2023-05-25T07:55:54.307Z,737.00
2023-05-25T07:56:54.258Z,738.00
2023-05-25T07:57:54.272Z,742.00
2023-05-25T07:58:54.280Z,739.00
2023-05-25T07:59:54.262Z,743.00
2023-05-25T08:00:54.264Z,746.00
2023-05-25T08:01:54.247Z,748.00
2023-05-25T08:02:54.330Z,751.00
2023-05-25T08:03:54.301Z,752.00
2023-05-25T08:04:54.360Z,751.00
2023-05-25T08:05:54.227Z,748.00
2023-05-25T08:06:54.196Z,745.00
2023-05-25T08:07:54.215Z,746.00
2023-05-25T08:08:54.194Z,745.00
2023-05-25T08:09:54.199Z,745.00
2023-05-25T08:10:54.178Z,743.00
2023-05-25T08:12:03.845Z,745.00
2023-05-25T08:12:56.206Z,745.00
2023-05-25T08:13:54.149Z,747.00
2023-05-25T08:14:54.179Z,747.00
2023-05-25T08:15:54.156Z,745.00
2023-05-25T08:16:54.162Z,746.00
2023-05-25T08:17:54.185Z,745.00
2023-05-25T08:18:54.552Z,744.00
2023-05-25T08:19:54.147Z,749.00
2023-05-25T08:20:54.121Z,750.00
2023-05-25T08:21:54.123Z,753.00
2023-05-25T08:22:54.132Z,754.00
2023-05-25T08:23:54.105Z,754.00
2023-05-25T08:24:54.116Z,754.00
2023-05-25T08:25:54.108Z,760.00
2023-05-25T08:26:55.117Z,762.00
2023-05-25T08:27:54.068Z,760.00
2023-05-25T08:28:54.040Z,761.00
2023-05-25T08:29:54.082Z,761.00
2023-05-25T08:30:54.112Z,763.00
2023-05-25T08:31:54.035Z,763.00
2023-05-25T08:32:54.156Z,764.00
2023-05-25T08:33:54.062Z,764.00
2023-05-25T08:34:54.048Z,764.00
2023-05-25T08:35:53.995Z,765.00
2023-05-25T08:36:54.023Z,767.00
2023-05-25T08:37:54.010Z,767.00
2023-05-25T08:38:54.003Z,769.00
2023-05-25T08:39:53.966Z,769.00
2023-05-25T08:40:53.973Z,774.00
2023-05-25T08:41:53.978Z,776.00
2023-05-25T08:42:53.963Z,774.00
2023-05-25T08:43:53.994Z,772.00
2023-05-25T08:44:53.982Z,771.00
2023-05-25T08:45:53.984Z,769.00
2023-05-25T08:46:53.955Z,768.00
2023-05-25T08:47:54.186Z,767.00
2023-05-25T08:48:54.067Z,767.00
2023-05-25T08:49:53.993Z,767.00
2023-05-25T08:50:53.898Z,766.00
2023-05-25T08:51:53.869Z,764.00
2023-05-25T08:52:53.878Z,768.00
2023-05-25T08:53:53.870Z,768.00
2023-05-25T08:54:53.886Z,767.00
2023-05-25T08:55:53.900Z,764.00
2023-05-25T08:56:53.851Z,762.00
2023-05-25T08:57:53.856Z,762.00
2023-05-25T08:58:53.922Z,760.00
2023-05-25T08:59:53.851Z,760.00
2023-05-25T09:00:53.816Z,761.00
2023-05-25T09:01:54.014Z,764.00
2023-05-25T09:02:53.940Z,764.00
2023-05-25T09:03:53.883Z,764.00
2023-05-25T09:04:53.788Z,765.00
2023-05-25T09:05:53.825Z,767.00
2023-05-25T09:07:06.293Z,765.00
2023-05-25T09:07:54.800Z,765.00
2023-05-25T09:08:53.782Z,762.00
2023-05-25T09:09:53.790Z,765.00
2023-05-25T09:10:53.783Z,763.00
2023-05-25T09:11:53.760Z,761.00
2023-05-25T09:12:54.882Z,759.00
2023-05-25T09:13:53.867Z,760.00
2023-05-25T09:14:53.750Z,759.00
2023-05-25T09:15:53.729Z,758.00
2023-05-25T09:16:53.854Z,757.00
2023-05-25T09:17:53.761Z,755.00
2023-05-25T09:18:53.725Z,755.00
2023-05-25T09:19:53.761Z,756.00
2023-05-25T09:20:54.133Z,757.00
2023-05-25T09:22:06.777Z,758.00
2023-05-25T09:22:54.722Z,757.00
2023-05-25T09:23:53.673Z,757.00
2023-05-25T09:24:53.714Z,757.00
2023-05-25T09:25:53.691Z,764.00
2023-05-25T09:26:53.683Z,765.00
2023-05-25T09:27:53.681Z,766.00
2023-05-25T09:28:53.647Z,762.00
2023-05-25T09:29:53.688Z,763.00
2023-05-25T09:30:53.662Z,762.00
2023-05-25T09:31:53.750Z,757.00
2023-05-25T09:32:53.644Z,756.00
2023-05-25T09:33:53.614Z,754.00
2023-05-25T09:34:53.654Z,750.00
2023-05-25T09:35:53.613Z,753.00
2023-05-25T09:36:53.760Z,754.00
2023-05-25T09:37:53.727Z,756.00
2023-05-25T09:38:53.863Z,755.00
2023-05-25T09:39:53.591Z,756.00
2023-05-25T09:40:53.606Z,755.00
2023-05-25T09:41:53.595Z,756.00
2023-05-25T09:42:53.588Z,755.00
2023-05-25T09:44:53.540Z,755.00
2023-05-25T09:45:53.573Z,755.00
2023-05-25T09:46:53.570Z,760.00
2023-05-25T09:47:53.619Z,759.00
2023-05-25T09:48:53.565Z,761.00
2023-05-25T09:49:53.531Z,765.00
2023-05-25T09:50:53.511Z,767.00
2023-05-25T09:51:53.496Z,765.00
2023-05-25T09:52:53.515Z,766.00
2023-05-25T09:53:53.508Z,764.00
2023-05-25T09:54:53.500Z,766.00
2023-05-25T09:55:54.450Z,765.00
2023-05-25T09:56:53.498Z,763.00
2023-05-25T09:57:53.479Z,762.00
2023-05-25T09:58:53.490Z,762.00
2023-05-25T09:59:53.494Z,762.00
2023-05-25T10:00:53.460Z,762.00
2023-05-25T10:01:53.699Z,765.00
2023-05-25T10:02:53.481Z,765.00
2023-05-25T10:04:03.594Z,766.00
2023-05-25T10:04:54.527Z,765.00
2023-05-25T10:05:53.427Z,768.00
2023-05-25T10:06:53.448Z,768.00
2023-05-25T10:07:53.401Z,766.00
2023-05-25T10:08:53.472Z,769.00
2023-05-25T10:09:53.466Z,768.00
2023-05-25T10:10:53.408Z,766.00
2023-05-25T10:11:53.416Z,765.00
2023-05-25T10:12:53.406Z,761.00
2023-05-25T10:13:53.408Z,760.00
2023-05-25T10:14:53.403Z,759.00
2023-05-25T10:15:53.467Z,758.00
2023-05-25T10:16:53.375Z,758.00
2023-05-25T10:17:53.496Z,757.00
2023-05-25T10:18:53.363Z,761.00
2023-05-25T10:19:53.370Z,762.00
2023-05-25T10:21:53.361Z,763.00
2023-05-25T10:22:53.333Z,764.00
2023-05-25T10:23:53.310Z,764.00
2023-05-25T10:24:53.337Z,765.00
2023-05-25T10:25:53.305Z,764.00
2023-05-25T10:26:53.303Z,760.00
2023-05-25T10:27:54.388Z,758.00
2023-05-25T10:28:53.308Z,757.00
2023-05-25T10:29:53.291Z,757.00
2023-05-25T10:30:53.297Z,760.00
2023-05-25T10:31:53.351Z,756.00
2023-05-25T10:32:53.283Z,754.00
2023-05-25T10:33:53.279Z,751.00
2023-05-25T10:34:53.278Z,754.00
2023-05-25T10:36:53.260Z,753.00
2023-05-25T10:37:53.215Z,750.00
2023-05-25T10:38:53.252Z,746.00
2023-05-25T10:39:53.244Z,747.00
2023-05-25T10:40:53.217Z,746.00
2023-05-25T10:41:53.208Z,749.00
2023-05-25T10:42:53.207Z,749.00
2023-05-25T10:43:53.186Z,748.00
2023-05-25T10:44:53.606Z,745.00
2023-05-25T10:45:54.155Z,747.00
2023-05-25T10:46:53.257Z,746.00
2023-05-25T10:47:54.219Z,744.00
2023-05-25T10:48:53.156Z,745.00
2023-05-25T10:49:53.160Z,743.00
2023-05-25T10:50:53.182Z,741.00
2023-05-25T10:51:53.218Z,740.00
2023-05-25T10:52:53.134Z,741.00
2023-05-25T10:53:53.117Z,739.00
2023-05-25T10:54:53.162Z,737.00
2023-05-25T10:55:53.127Z,737.00
2023-05-25T10:56:53.115Z,740.00
2023-05-25T10:57:53.110Z,741.00
2023-05-25T10:58:53.135Z,743.00
2023-05-25T10:59:53.094Z,745.00
2023-05-25T11:00:53.133Z,744.00
2023-05-25T11:01:53.178Z,742.00
2023-05-25T11:02:53.103Z,740.00
2023-05-25T11:03:53.092Z,738.00
2023-05-25T11:04:53.062Z,733.00
2023-05-25T11:05:53.034Z,730.00
2023-05-25T11:06:53.038Z,730.00
2023-05-25T11:07:53.013Z,731.00
2023-05-25T11:08:53.029Z,730.00
2023-05-25T11:09:53.038Z,730.00
2023-05-25T11:10:53.047Z,732.00
2023-05-25T11:11:53.028Z,729.00
2023-05-25T11:12:53.023Z,732.00
2023-05-25T11:13:53.013Z,729.00
2023-05-25T11:14:53.016Z,728.00
2023-05-25T11:15:52.969Z,729.00
2023-05-25T11:16:52.959Z,731.00
2023-05-25T11:17:53.003Z,728.00
2023-05-25T11:18:52.972Z,730.00
2023-05-25T11:19:53.039Z,731.00
2023-05-25T11:20:52.995Z,730.00
2023-05-25T11:21:52.969Z,730.00
2023-05-25T11:22:52.959Z,730.00
2023-05-25T11:23:52.938Z,729.00
2023-05-25T11:24:53.114Z,727.00
2023-05-25T11:25:52.895Z,723.00
2023-05-25T11:26:52.945Z,723.00
2023-05-25T11:27:52.886Z,720.00
2023-05-25T11:28:52.951Z,719.00
2023-05-25T11:29:52.903Z,719.00
2023-05-25T11:30:52.921Z,716.00
2023-05-25T11:31:52.890Z,714.00
2023-05-25T11:32:52.973Z,713.00
2023-05-25T11:33:52.884Z,710.00
2023-05-25T11:34:53.111Z,709.00
2023-05-25T11:35:52.844Z,709.00
2023-05-25T11:36:52.855Z,708.00
2023-05-25T11:37:52.855Z,704.00
2023-05-25T11:39:02.534Z,704.00
2023-05-25T11:39:54.127Z,706.00
2023-05-25T11:40:52.905Z,703.00
2023-05-25T11:41:52.818Z,701.00
2023-05-25T11:42:52.825Z,702.00
2023-05-25T11:43:52.814Z,704.00
2023-05-25T11:44:52.836Z,699.00
2023-05-25T11:45:52.782Z,695.00
2023-05-25T11:46:52.892Z,691.00
2023-05-25T11:47:52.867Z,692.00
2023-05-25T11:48:52.772Z,689.00
2023-05-25T11:49:53.106Z,689.00
2023-05-25T11:50:52.785Z,688.00
2023-05-25T11:51:52.750Z,689.00
2023-05-25T11:52:52.757Z,689.00
2023-05-25T11:53:52.761Z,689.00
2023-05-25T11:54:52.736Z,688.00
2023-05-25T11:56:03.522Z,690.00
2023-05-25T11:56:53.727Z,688.00
2023-05-25T11:57:52.726Z,687.00
2023-05-25T11:58:52.694Z,687.00
2023-05-25T11:59:52.701Z,684.00
2023-05-25T12:00:52.710Z,679.00
2023-05-25T12:01:52.674Z,677.00
2023-05-25T12:02:52.804Z,678.00
2023-05-25T12:03:52.837Z,678.00
2023-05-25T12:04:52.750Z,674.00
2023-05-25T12:05:52.683Z,671.00
2023-05-25T12:06:52.764Z,670.00
2023-05-25T12:07:52.691Z,670.00
2023-05-25T12:08:52.666Z,668.00
2023-05-25T12:09:53.148Z,666.00
2023-05-25T12:10:52.680Z,666.00
2023-05-25T12:11:52.624Z,665.00
2023-05-25T12:12:52.619Z,663.00
2023-05-25T12:13:52.647Z,661.00
2023-05-25T12:14:52.646Z,659.00
2023-05-25T12:15:52.621Z,658.00
2023-05-25T12:16:52.710Z,662.00
2023-05-25T12:17:52.755Z,665.00
2023-05-25T12:18:52.665Z,667.00
2023-05-25T12:19:52.718Z,671.00
2023-05-25T12:20:52.736Z,673.00
2023-05-25T12:21:52.657Z,679.00
2023-05-25T12:22:52.711Z,680.00
2023-05-25T12:23:52.701Z,679.00
2023-05-25T12:24:53.141Z,676.00
2023-05-25T12:25:52.967Z,672.00
2023-05-25T12:26:52.782Z,668.00
2023-05-25T12:27:52.772Z,665.00
2023-05-25T12:28:52.800Z,665.00
2023-05-25T12:29:52.807Z,666.00